LWSK/SKP METAR and TAF weather

Enter ICAO airport designator
Station Type Date Time Source
LWSK METAR 2021/09/24 02:30 UTC NOAA

LWSK 240230Z 00000KT CAVOK 05/02 Q1021 NOSIG


Station Type Date Time Source
LWSK Decoded METAR 2021/09/24 02:30 UTC NOAA

Skopje-Petrovec, Macedonia, The Republic of (LWSK) 41-58N 021-39E 239M
Sep 23, 2021 - 10:30 PM EDT / 2021.09.24 0230 UTC
Wind: Calm:0
Visibility: greater than 7 mile(s):0
Temperature: 41 F (5 C)
Dew Point: 35 F (2 C)
Relative Humidity: 80%
Pressure (altimeter): 30.15 in. Hg (1021 hPa)
ob: LWSK 240230Z 00000KT CAVOK 05/02 Q1021 NOSIG
cycle: 2

Station Type Date Time Source
LWSK TAF 2021/09/24 00:56 UTC NOAA

TAF LWSK 232330Z 2400/2424 VRB02KT CAVOK

Example: see airport list